sensor_id;sensor_type;location;lat;lon;timestamp;pressure;altitude;pressure_sealevel;temperature;humidity
18500;BME280;9379;52.134;11.576;2024-02-21T00:00:55;101460.03;;;11.28;88.29
18500;BME280;9379;52.134;11.576;2024-02-21T00:03:22;101457.59;;;11.14;88.20
18500;BME280;9379;52.134;11.576;2024-02-21T00:05:49;101457.75;;;11.24;88.04
18500;BME280;9379;52.134;11.576;2024-02-21T00:08:16;101443.34;;;11.37;89.46
18500;BME280;9379;52.134;11.576;2024-02-21T00:10:43;101447.97;;;11.58;89.92
18500;BME280;9379;52.134;11.576;2024-02-21T00:13:12;101456.22;;;11.08;93.29
18500;BME280;9379;52.134;11.576;2024-02-21T00:15:39;101450.50;;;11.37;93.68
18500;BME280;9379;52.134;11.576;2024-02-21T00:18:06;101451.56;;;11.57;93.69
18500;BME280;9379;52.134;11.576;2024-02-21T00:20:33;101433.44;;;11.39;94.54
18500;BME280;9379;52.134;11.576;2024-02-21T00:23:00;101439.09;;;11.24;95.45
18500;BME280;9379;52.134;11.576;2024-02-21T00:25:27;101430.00;;;11.15;96.26
18500;BME280;9379;52.134;11.576;2024-02-21T00:27:53;101422.78;;;11.39;95.80
18500;BME280;9379;52.134;11.576;2024-02-21T00:30:22;101433.19;;;11.43;95.66
18500;BME280;9379;52.134;11.576;2024-02-21T00:32:49;101437.28;;;11.24;97.40
18500;BME280;9379;52.134;11.576;2024-02-21T00:35:15;101438.88;;;11.60;94.84
18500;BME280;9379;52.134;11.576;2024-02-21T00:37:45;101441.28;;;11.63;94.68
18500;BME280;9379;52.134;11.576;2024-02-21T00:40:12;101437.66;;;11.42;96.60
18500;BME280;9379;52.134;11.576;2024-02-21T00:42:41;101431.63;;;11.40;97.61
18500;BME280;9379;52.134;11.576;2024-02-21T00:45:09;101435.00;;;11.76;96.26
18500;BME280;9379;52.134;11.576;2024-02-21T00:47:37;101441.28;;;11.75;95.51
18500;BME280;9379;52.134;11.576;2024-02-21T00:50:05;101436.22;;;11.60;96.16
18500;BME280;9379;52.134;11.576;2024-02-21T00:52:33;101439.22;;;11.78;96.92
18500;BME280;9379;52.134;11.576;2024-02-21T00:55:00;101435.50;;;11.69;96.17
18500;BME280;9379;52.134;11.576;2024-02-21T00:57:27;101440.06;;;11.79;95.53
18500;BME280;9379;52.134;11.576;2024-02-21T00:59:53;101435.25;;;11.73;94.47
18500;BME280;9379;52.134;11.576;2024-02-21T01:02:20;101431.50;;;11.64;95.75
18500;BME280;9379;52.134;11.576;2024-02-21T01:04:49;101426.75;;;11.79;96.22
18500;BME280;9379;52.134;11.576;2024-02-21T01:07:15;101430.25;;;11.68;97.36
18500;BME280;9379;52.134;11.576;2024-02-21T01:09:42;101429.41;;;11.67;97.67
18500;BME280;9379;52.134;11.576;2024-02-21T01:12:09;101427.97;;;11.63;96.72
18500;BME280;9379;52.134;11.576;2024-02-21T01:14:36;101426.53;;;11.48;98.09
18500;BME280;9379;52.134;11.576;2024-02-21T01:17:03;101420.47;;;11.57;97.91
18500;BME280;9379;52.134;11.576;2024-02-21T01:19:31;101420.25;;;11.38;98.80
18500;BME280;9379;52.134;11.576;2024-02-21T01:22:00;101413.44;;;11.45;98.48
18500;BME280;9379;52.134;11.576;2024-02-21T01:24:29;101411.75;;;11.33;98.05
18500;BME280;9379;52.134;11.576;2024-02-21T01:26:56;101410.41;;;11.05;99.20
18500;BME280;9379;52.134;11.576;2024-02-21T01:29:23;101408.31;;;10.97;99.38
18500;BME280;9379;52.134;11.576;2024-02-21T01:31:50;101398.69;;;11.19;99.55
18500;BME280;9379;52.134;11.576;2024-02-21T01:34:17;101400.81;;;10.80;100.00
18500;BME280;9379;52.134;11.576;2024-02-21T01:36:44;101397.72;;;11.08;99.63
18500;BME280;9379;52.134;11.576;2024-02-21T01:39:12;101387.56;;;11.14;100.00
18500;BME280;9379;52.134;11.576;2024-02-21T01:41:39;101385.88;;;11.01;100.00
18500;BME280;9379;52.134;11.576;2024-02-21T01:44:06;101384.66;;;11.17;100.00
18500;BME280;9379;52.134;11.576;2024-02-21T01:46:34;101368.69;;;11.05;99.59
18500;BME280;9379;52.134;11.576;2024-02-21T01:49:01;101368.69;;;11.17;99.36
18500;BME280;9379;52.134;11.576;2024-02-21T01:51:30;101369.78;;;11.03;99.73
18500;BME280;9379;52.134;11.576;2024-02-21T01:53:57;101367.25;;;11.13;98.79
18500;BME280;9379;52.134;11.576;2024-02-21T01:56:26;101371.41;;;10.70;100.00
18500;BME280;9379;52.134;11.576;2024-02-21T01:58:54;101373.97;;;10.83;100.00
18500;BME280;9379;52.134;11.576;2024-02-21T02:01:22;101368.81;;;11.04;99.05
18500;BME280;9379;52.134;11.576;2024-02-21T02:03:49;101371.13;;;11.31;98.63
18500;BME280;9379;52.134;11.576;2024-02-21T02:06:16;101361.31;;;11.43;97.78
18500;BME280;9379;52.134;11.576;2024-02-21T02:08:43;101356.63;;;11.13;98.81
18500;BME280;9379;52.134;11.576;2024-02-21T02:11:12;101356.84;;;11.09;99.14
18500;BME280;9379;52.134;11.576;2024-02-21T02:13:41;101348.97;;;11.42;98.37
18500;BME280;9379;52.134;11.576;2024-02-21T02:16:08;101358.31;;;11.14;97.84
18500;BME280;9379;52.134;11.576;2024-02-21T02:18:35;101353.81;;;11.48;97.76
18500;BME280;9379;52.134;11.576;2024-02-21T02:21:03;101347.03;;;11.32;98.50
18500;BME280;9379;52.134;11.576;2024-02-21T02:23:33;101338.06;;;11.56;95.71
18500;BME280;9379;52.134;11.576;2024-02-21T02:26:00;101341.94;;;11.52;96.02
18500;BME280;9379;52.134;11.576;2024-02-21T02:28:27;101342.19;;;11.60;96.83
18500;BME280;9379;52.134;11.576;2024-02-21T02:30:54;101338.91;;;11.56;95.00
18500;BME280;9379;52.134;11.576;2024-02-21T02:33:21;101342.53;;;11.55;96.07
18500;BME280;9379;52.134;11.576;2024-02-21T02:35:48;101338.28;;;11.75;95.38
18500;BME280;9379;52.134;11.576;2024-02-21T02:38:15;101344.91;;;11.92;94.76
18500;BME280;9379;52.134;11.576;2024-02-21T02:40:43;101347.81;;;11.89;94.11
18500;BME280;9379;52.134;11.576;2024-02-21T02:43:10;101355.34;;;11.95;94.64
18500;BME280;9379;52.134;11.576;2024-02-21T02:45:37;101346.53;;;11.83;94.34
18500;BME280;9379;52.134;11.576;2024-02-21T02:48:04;101334.22;;;12.03;94.53
18500;BME280;9379;52.134;11.576;2024-02-21T02:50:31;101335.75;;;11.74;95.18
18500;BME280;9379;52.134;11.576;2024-02-21T02:52:58;101334.66;;;11.65;95.80
18500;BME280;9379;52.134;11.576;2024-02-21T02:55:25;101336.94;;;11.81;95.07
18500;BME280;9379;52.134;11.576;2024-02-21T02:57:54;101339.25;;;11.85;94.96
18500;BME280;9379;52.134;11.576;2024-02-21T03:00:21;101326.81;;;11.63;96.33
18500;BME280;9379;52.134;11.576;2024-02-21T03:02:49;101329.72;;;11.60;96.16
18500;BME280;9379;52.134;11.576;2024-02-21T03:05:18;101324.88;;;11.54;96.42
18500;BME280;9379;52.134;11.576;2024-02-21T03:07:45;101326.53;;;11.66;96.58
18500;BME280;9379;52.134;11.576;2024-02-21T03:10:13;101325.25;;;11.61;96.11
18500;BME280;9379;52.134;11.576;2024-02-21T03:15:12;101325.09;;;11.85;94.77
18500;BME280;9379;52.134;11.576;2024-02-21T03:17:39;101315.06;;;11.55;96.85
18500;BME280;9379;52.134;11.576;2024-02-21T03:20:08;101307.69;;;11.58;96.86
18500;BME280;9379;52.134;11.576;2024-02-21T03:22:35;101303.59;;;11.43;97.55
18500;BME280;9379;52.134;11.576;2024-02-21T03:25:02;101304.09;;;11.48;97.63
18500;BME280;9379;52.134;11.576;2024-02-21T03:27:29;101298.88;;;11.58;97.08
18500;BME280;9379;52.134;11.576;2024-02-21T03:29:56;101286.91;;;11.41;97.64
18500;BME280;9379;52.134;11.576;2024-02-21T03:32:24;101278.22;;;11.39;97.75
18500;BME280;9379;52.134;11.576;2024-02-21T03:34:51;101267.47;;;11.18;98.88
18500;BME280;9379;52.134;11.576;2024-02-21T03:37:18;101262.97;;;11.41;98.89
18500;BME280;9379;52.134;11.576;2024-02-21T03:39:45;101258.66;;;10.95;99.20
18500;BME280;9379;52.134;11.576;2024-02-21T03:42:12;101260.47;;;10.72;100.00
18500;BME280;9379;52.134;11.576;2024-02-21T03:44:38;101245.22;;;11.19;99.54
18500;BME280;9379;52.134;11.576;2024-02-21T03:47:05;101249.25;;;10.80;100.00
18500;BME280;9379;52.134;11.576;2024-02-21T03:49:37;101239.91;;;11.08;99.25
18500;BME280;9379;52.134;11.576;2024-02-21T03:52:04;101242.25;;;10.79;100.00
18500;BME280;9379;52.134;11.576;2024-02-21T03:54:31;101238.72;;;11.12;100.00
18500;BME280;9379;52.134;11.576;2024-02-21T03:56:58;101238.72;;;11.01;99.75
18500;BME280;9379;52.134;11.576;2024-02-21T03:59:25;101230.81;;;11.10;99.33
18500;BME280;9379;52.134;11.576;2024-02-21T04:01:52;101227.09;;;11.13;98.41
18500;BME280;9379;52.134;11.576;2024-02-21T04:04:19;101226.00;;;11.16;98.31
18500;BME280;9379;52.134;11.576;2024-02-21T04:06:48;101214.81;;;11.33;98.56
18500;BME280;9379;52.134;11.576;2024-02-21T04:09:15;101213.09;;;11.00;98.20
18500;BME280;9379;52.134;11.576;2024-02-21T04:11:42;101207.91;;;10.76;100.00
18500;BME280;9379;52.134;11.576;2024-02-21T04:14:09;101208.97;;;11.07;99.44
18500;BME280;9379;52.134;11.576;2024-02-21T04:16:36;101208.84;;;10.97;99.53
18500;BME280;9379;52.134;11.576;2024-02-21T04:19:03;101204.34;;;11.09;99.74
18500;BME280;9379;52.134;11.576;2024-02-21T04:21:30;101191.84;;;10.77;99.86
18500;BME280;9379;52.134;11.576;2024-02-21T04:23:58;101190.56;;;11.15;98.90
18500;BME280;9379;52.134;11.576;2024-02-21T04:26:25;101191.59;;;11.46;97.01
18500;BME280;9379;52.134;11.576;2024-02-21T04:28:52;101192.13;;;11.61;95.93
18500;BME280;9379;52.134;11.576;2024-02-21T04:31:19;101187.78;;;11.17;98.37
18500;BME280;9379;52.134;11.576;2024-02-21T04:33:45;101181.56;;;10.84;99.19
18500;BME280;9379;52.134;11.576;2024-02-21T04:36:12;101179.41;;;11.21;98.17
18500;BME280;9379;52.134;11.576;2024-02-21T04:38:43;101174.13;;;11.10;98.34
18500;BME280;9379;52.134;11.576;2024-02-21T04:41:11;101172.78;;;11.16;98.23
18500;BME280;9379;52.134;11.576;2024-02-21T04:43:38;101167.44;;;11.27;97.58
18500;BME280;9379;52.134;11.576;2024-02-21T04:46:05;101168.41;;;11.26;97.16
18500;BME280;9379;52.134;11.576;2024-02-21T04:48:32;101154.94;;;10.95;98.32
18500;BME280;9379;52.134;11.576;2024-02-21T04:50:58;101168.13;;;10.86;98.51
18500;BME280;9379;52.134;11.576;2024-02-21T04:53:25;101165.00;;;10.92;98.03
18500;BME280;9379;52.134;11.576;2024-02-21T04:55:52;101152.41;;;10.94;97.31
18500;BME280;9379;52.134;11.576;2024-02-21T04:58:20;101145.28;;;10.83;98.22
18500;BME280;9379;52.134;11.576;2024-02-21T05:00:47;101152.19;;;10.63;98.01
18500;BME280;9379;52.134;11.576;2024-02-21T05:03:14;101151.44;;;10.95;97.02
18500;BME280;9379;52.134;11.576;2024-02-21T05:05:41;101169.19;;;11.05;96.04
18500;BME280;9379;52.134;11.576;2024-02-21T05:08:10;101168.44;;;11.15;95.42
18500;BME280;9379;52.134;11.576;2024-02-21T05:10:36;101173.88;;;11.24;95.52
18500;BME280;9379;52.134;11.576;2024-02-21T05:13:03;101185.22;;;11.26;94.91
18500;BME280;9379;52.134;11.576;2024-02-21T05:15:32;101187.38;;;11.32;94.23
18500;BME280;9379;52.134;11.576;2024-02-21T05:17:59;101187.13;;;11.35;94.62
18500;BME280;9379;52.134;11.576;2024-02-21T05:20:26;101187.94;;;11.47;93.54
18500;BME280;9379;52.134;11.576;2024-02-21T05:22:53;101179.69;;;11.07;94.07
18500;BME280;9379;52.134;11.576;2024-02-21T05:25:20;101181.66;;;11.48;93.98
18500;BME280;9379;52.134;11.576;2024-02-21T05:27:46;101184.03;;;11.51;94.27
18500;BME280;9379;52.134;11.576;2024-02-21T05:30:13;101168.38;;;11.37;93.99
18500;BME280;9379;52.134;11.576;2024-02-21T05:32:42;101165.75;;;11.58;92.11
18500;BME280;9379;52.134;11.576;2024-02-21T05:35:08;101163.16;;;11.47;92.93
18500;BME280;9379;52.134;11.576;2024-02-21T05:37:35;101168.78;;;11.53;92.21
18500;BME280;9379;52.134;11.576;2024-02-21T05:40:02;101171.81;;;11.17;94.85
18500;BME280;9379;52.134;11.576;2024-02-21T05:42:29;101169.78;;;10.98;94.01
18500;BME280;9379;52.134;11.576;2024-02-21T05:44:56;101169.63;;;11.22;94.07
18500;BME280;9379;52.134;11.576;2024-02-21T05:47:23;101172.94;;;11.67;92.97
18500;BME280;9379;52.134;11.576;2024-02-21T05:49:51;101177.91;;;11.72;91.65
18500;BME280;9379;52.134;11.576;2024-02-21T05:52:19;101170.44;;;11.65;91.63
18500;BME280;9379;52.134;11.576;2024-02-21T05:54:46;101169.72;;;11.63;90.58
18500;BME280;9379;52.134;11.576;2024-02-21T05:57:13;101170.16;;;11.68;90.13
18500;BME280;9379;52.134;11.576;2024-02-21T05:59:40;101167.16;;;11.41;91.31
18500;BME280;9379;52.134;11.576;2024-02-21T06:02:07;101165.75;;;11.58;91.28
18500;BME280;9379;52.134;11.576;2024-02-21T06:04:34;101168.06;;;11.51;91.16
18500;BME280;9379;52.134;11.576;2024-02-21T06:07:02;101169.97;;;11.60;90.03
18500;BME280;9379;52.134;11.576;2024-02-21T06:09:29;101169.81;;;11.41;91.89
18500;BME280;9379;52.134;11.576;2024-02-21T06:11:57;101157.22;;;11.43;92.35
18500;BME280;9379;52.134;11.576;2024-02-21T06:14:24;101162.16;;;11.48;91.32
18500;BME280;9379;52.134;11.576;2024-02-21T06:16:51;101164.69;;;11.49;92.10
18500;BME280;9379;52.134;11.576;2024-02-21T06:19:17;101158.66;;;11.47;91.83
18500;BME280;9379;52.134;11.576;2024-02-21T06:21:44;101158.63;;;11.26;91.75
18500;BME280;9379;52.134;11.576;2024-02-21T06:24:12;101148.41;;;11.31;92.17
18500;BME280;9379;52.134;11.576;2024-02-21T06:26:40;101152.72;;;11.44;91.15
18500;BME280;9379;52.134;11.576;2024-02-21T06:29:07;101152.81;;;11.53;90.17
18500;BME280;9379;52.134;11.576;2024-02-21T06:31:35;101156.97;;;11.14;91.67
18500;BME280;9379;52.134;11.576;2024-02-21T06:34:01;101157.13;;;10.90;92.59
18500;BME280;9379;52.134;11.576;2024-02-21T06:36:29;101161.84;;;10.87;93.76
18500;BME280;9379;52.134;11.576;2024-02-21T06:38:56;101154.03;;;11.17;91.60
18500;BME280;9379;52.134;11.576;2024-02-21T06:41:24;101144.56;;;11.35;91.14
18500;BME280;9379;52.134;11.576;2024-02-21T06:43:51;101153.91;;;11.19;90.91
18500;BME280;9379;52.134;11.576;2024-02-21T06:46:25;101150.78;;;11.46;91.15
18500;BME280;9379;52.134;11.576;2024-02-21T06:48:52;101156.06;;;11.57;89.47
18500;BME280;9379;52.134;11.576;2024-02-21T06:51:19;101156.28;;;11.33;90.33
18500;BME280;9379;52.134;11.576;2024-02-21T06:53:46;101153.44;;;11.25;90.75
18500;BME280;9379;52.134;11.576;2024-02-21T06:56:13;101147.25;;;11.24;91.46
18500;BME280;9379;52.134;11.576;2024-02-21T06:58:41;101142.72;;;11.04;91.30
18500;BME280;9379;52.134;11.576;2024-02-21T07:01:08;101144.84;;;11.10;90.80
18500;BME280;9379;52.134;11.576;2024-02-21T07:03:35;101144.13;;;11.19;90.70
18500;BME280;9379;52.134;11.576;2024-02-21T07:06:02;101143.53;;;11.16;90.55
18500;BME280;9379;52.134;11.576;2024-02-21T07:08:29;101152.72;;;11.44;90.37
18500;BME280;9379;52.134;11.576;2024-02-21T07:10:56;101152.72;;;11.44;90.10
18500;BME280;9379;52.134;11.576;2024-02-21T07:13:23;101160.94;;;11.52;89.54
18500;BME280;9379;52.134;11.576;2024-02-21T07:15:51;101150.94;;;11.12;90.89
18500;BME280;9379;52.134;11.576;2024-02-21T07:18:18;101155.75;;;11.50;90.57
18500;BME280;9379;52.134;11.576;2024-02-21T07:20:45;101156.59;;;11.51;88.97
18500;BME280;9379;52.134;11.576;2024-02-21T07:23:12;101152.34;;;11.80;89.51
18500;BME280;9379;52.134;11.576;2024-02-21T07:25:39;101145.94;;;11.51;90.92
18500;BME280;9379;52.134;11.576;2024-02-21T07:28:06;101142.13;;;11.64;90.64
18500;BME280;9379;52.134;11.576;2024-02-21T07:30:33;101135.44;;;11.70;89.41
18500;BME280;9379;52.134;11.576;2024-02-21T07:33:02;101144.94;;;12.05;88.32
18500;BME280;9379;52.134;11.576;2024-02-21T07:35:29;101147.25;;;11.77;89.11
18500;BME280;9379;52.134;11.576;2024-02-21T07:37:55;101147.16;;;11.67;88.93
18500;BME280;9379;52.134;11.576;2024-02-21T07:40:23;101147.78;;;11.92;89.21
18500;BME280;9379;52.134;11.576;2024-02-21T07:42:49;101141.94;;;12.19;88.43
18500;BME280;9379;52.134;11.576;2024-02-21T07:45:17;101146.00;;;12.23;88.20
18500;BME280;9379;52.134;11.576;2024-02-21T07:47:47;101150.44;;;12.13;88.67
18500;BME280;9379;52.134;11.576;2024-02-21T07:50:15;101147.94;;;12.42;87.64
18500;BME280;9379;52.134;11.576;2024-02-21T07:52:42;101150.28;;;11.84;88.93
18500;BME280;9379;52.134;11.576;2024-02-21T07:55:09;101150.38;;;12.03;88.68
18500;BME280;9379;52.134;11.576;2024-02-21T07:57:37;101151.28;;;12.13;88.52
18500;BME280;9379;52.134;11.576;2024-02-21T08:00:05;101151.19;;;11.94;89.95
18500;BME280;9379;52.134;11.576;2024-02-21T08:02:35;101143.38;;;12.02;88.17
18500;BME280;9379;52.134;11.576;2024-02-21T08:05:02;101146.38;;;11.88;89.58
18500;BME280;9379;52.134;11.576;2024-02-21T08:07:31;101148.13;;;11.98;89.66
18500;BME280;9379;52.134;11.576;2024-02-21T08:09:58;101143.34;;;11.60;89.80
18500;BME280;9379;52.134;11.576;2024-02-21T08:12:25;101150.88;;;11.55;91.51
18500;BME280;9379;52.134;11.576;2024-02-21T08:14:52;101149.44;;;11.83;90.44
18500;BME280;9379;52.134;11.576;2024-02-21T08:17:19;101146.47;;;11.65;91.20
18500;BME280;9379;52.134;11.576;2024-02-21T08:19:46;101158.66;;;11.68;90.91
18500;BME280;9379;52.134;11.576;2024-02-21T08:22:14;101151.34;;;11.60;91.15
18500;BME280;9379;52.134;11.576;2024-02-21T08:24:43;101151.44;;;11.91;90.54
18500;BME280;9379;52.134;11.576;2024-02-21T08:27:09;101153.88;;;12.04;89.71
18500;BME280;9379;52.134;11.576;2024-02-21T08:29:36;101156.31;;;12.07;89.79
18500;BME280;9379;52.134;11.576;2024-02-21T08:32:03;101146.53;;;12.47;87.30
18500;BME280;9379;52.134;11.576;2024-02-21T08:34:30;101137.81;;;12.15;87.82
18500;BME280;9379;52.134;11.576;2024-02-21T08:36:59;101145.19;;;11.81;88.77
18500;BME280;9379;52.134;11.576;2024-02-21T08:39:28;101140.28;;;11.65;90.24
18500;BME280;9379;52.134;11.576;2024-02-21T08:41:57;101143.69;;;12.09;88.69
18500;BME280;9379;52.134;11.576;2024-02-21T08:44:24;101135.31;;;12.44;87.91
18500;BME280;9379;52.134;11.576;2024-02-21T08:46:51;101146.44;;;12.59;86.42
18500;BME280;9379;52.134;11.576;2024-02-21T08:49:18;101150.84;;;12.69;87.11
18500;BME280;9379;52.134;11.576;2024-02-21T08:51:45;101144.47;;;12.61;88.02
18500;BME280;9379;52.134;11.576;2024-02-21T08:54:12;101145.13;;;12.93;85.28
18500;BME280;9379;52.134;11.576;2024-02-21T08:56:39;101155.88;;;12.63;86.53
18500;BME280;9379;52.134;11.576;2024-02-21T08:59:08;101151.50;;;12.62;85.65
18500;BME280;9379;52.134;11.576;2024-02-21T09:01:35;101152.63;;;12.59;85.86
18500;BME280;9379;52.134;11.576;2024-02-21T09:04:02;101138.91;;;12.64;85.55
18500;BME280;9379;52.134;11.576;2024-02-21T09:06:30;101150.47;;;12.43;85.95
18500;BME280;9379;52.134;11.576;2024-02-21T09:08:58;101147.97;;;12.51;86.67
18500;BME280;9379;52.134;11.576;2024-02-21T09:11:25;101143.03;;;12.47;86.47
18500;BME280;9379;52.134;11.576;2024-02-21T09:13:53;101132.81;;;12.52;86.03
18500;BME280;9379;52.134;11.576;2024-02-21T09:16:21;101135.19;;;12.85;86.21
18500;BME280;9379;52.134;11.576;2024-02-21T09:18:49;101137.94;;;12.74;85.83
18500;BME280;9379;52.134;11.576;2024-02-21T09:21:16;101140.19;;;12.79;86.92
18500;BME280;9379;52.134;11.576;2024-02-21T09:23:42;101135.19;;;13.05;86.81
18500;BME280;9379;52.134;11.576;2024-02-21T09:26:09;101130.56;;;13.17;84.46
18500;BME280;9379;52.134;11.576;2024-02-21T09:28:39;101129.97;;;12.94;86.10
18500;BME280;9379;52.134;11.576;2024-02-21T09:31:06;101126.69;;;13.30;84.13
18500;BME280;9379;52.134;11.576;2024-02-21T09:33:34;101127.81;;;13.37;84.26
18500;BME280;9379;52.134;11.576;2024-02-21T09:36:01;101125.44;;;13.44;82.57
18500;BME280;9379;52.134;11.576;2024-02-21T09:38:28;101128.78;;;13.27;84.77
18500;BME280;9379;52.134;11.576;2024-02-21T09:40:59;101128.38;;;13.22;84.09
18500;BME280;9379;52.134;11.576;2024-02-21T09:43:26;101134.00;;;13.38;84.13
18500;BME280;9379;52.134;11.576;2024-02-21T09:45:55;101129.09;;;13.43;82.85
18500;BME280;9379;52.134;11.576;2024-02-21T09:48:32;101121.06;;;13.24;84.40
18500;BME280;9379;52.134;11.576;2024-02-21T09:51:04;101119.22;;;13.53;83.11
18500;BME280;9379;52.134;11.576;2024-02-21T09:53:32;101115.53;;;13.15;83.36
18500;BME280;9379;52.134;11.576;2024-02-21T09:56:00;101117.69;;;13.51;82.47
18500;BME280;9379;52.134;11.576;2024-02-21T09:58:29;101108.00;;;13.40;82.30
18500;BME280;9379;52.134;11.576;2024-02-21T10:00:56;101107.69;;;13.62;82.87
18500;BME280;9379;52.134;11.576;2024-02-21T10:03:25;101104.03;;;13.63;81.91
18500;BME280;9379;52.134;11.576;2024-02-21T10:05:52;101101.50;;;13.62;81.94
18500;BME280;9379;52.134;11.576;2024-02-21T10:08:21;101099.50;;;13.83;80.97
18500;BME280;9379;52.134;11.576;2024-02-21T10:10:48;101103.66;;;14.15;80.51
18500;BME280;9379;52.134;11.576;2024-02-21T10:13:25;101093.28;;;14.02;80.20
18500;BME280;9379;52.134;11.576;2024-02-21T10:16:03;101083.84;;;13.98;79.99
18500;BME280;9379;52.134;11.576;2024-02-21T10:18:30;101095.69;;;13.86;79.10
18500;BME280;9379;52.134;11.576;2024-02-21T10:21:01;101102.88;;;13.85;79.64
18500;BME280;9379;52.134;11.576;2024-02-21T10:23:29;101105.06;;;14.46;79.22
18500;BME280;9379;52.134;11.576;2024-02-21T10:26:07;101097.84;;;15.02;79.18
18500;BME280;9379;52.134;11.576;2024-02-21T10:28:34;101088.94;;;14.66;77.89
18500;BME280;9379;52.134;11.576;2024-02-21T10:31:01;101098.16;;;14.53;79.10
18500;BME280;9379;52.134;11.576;2024-02-21T10:33:28;101091.59;;;14.66;77.95
18500;BME280;9379;52.134;11.576;2024-02-21T10:36:06;101080.88;;;14.48;77.76
18500;BME280;9379;52.134;11.576;2024-02-21T10:38:36;101069.19;;;14.39;79.16
18500;BME280;9379;52.134;11.576;2024-02-21T10:41:04;101084.66;;;14.08;78.01
18500;BME280;9379;52.134;11.576;2024-02-21T10:43:38;101078.59;;;14.43;76.30
18500;BME280;9379;52.134;11.576;2024-02-21T10:46:06;101072.06;;;15.01;77.09
18500;BME280;9379;52.134;11.576;2024-02-21T10:48:41;101063.16;;;14.65;76.44
18500;BME280;9379;52.134;11.576;2024-02-21T10:51:15;101056.47;;;14.96;75.82
18500;BME280;9379;52.134;11.576;2024-02-21T10:53:50;101056.03;;;14.55;76.19
18500;BME280;9379;52.134;11.576;2024-02-21T10:56:28;101057.13;;;14.63;76.20
18500;BME280;9379;52.134;11.576;2024-02-21T10:58:57;101044.81;;;14.70;76.21
18500;BME280;9379;52.134;11.576;2024-02-21T11:01:24;101040.50;;;14.86;76.96
18500;BME280;9379;52.134;11.576;2024-02-21T11:03:53;101041.47;;;14.68;75.86
18500;BME280;9379;52.134;11.576;2024-02-21T11:06:22;101028.00;;;14.32;73.66
18500;BME280;9379;52.134;11.576;2024-02-21T11:09:01;101035.06;;;14.23;74.97
18500;BME280;9379;52.134;11.576;2024-02-21T11:11:28;101028.41;;;14.37;74.17
18500;BME280;9379;52.134;11.576;2024-02-21T11:14:04;101013.78;;;14.31;74.66
18500;BME280;9379;52.134;11.576;2024-02-21T11:16:35;101009.19;;;14.69;75.08
18500;BME280;9379;52.134;11.576;2024-02-21T11:19:07;101006.91;;;14.92;72.50
18500;BME280;9379;52.134;11.576;2024-02-21T11:21:35;101002.09;;;14.60;73.27
18500;BME280;9379;52.134;11.576;2024-02-21T11:24:04;101001.88;;;14.26;75.37
18500;BME280;9379;52.134;11.576;2024-02-21T11:26:33;101001.66;;;14.37;74.95
18500;BME280;9379;52.134;11.576;2024-02-21T11:29:00;100991.81;;;14.10;73.56
18500;BME280;9379;52.134;11.576;2024-02-21T11:31:38;100988.66;;;14.24;74.42
18500;BME280;9379;52.134;11.576;2024-02-21T11:34:08;100982.22;;;14.17;74.95
18500;BME280;9379;52.134;11.576;2024-02-21T11:36:35;100968.44;;;14.40;74.22
18500;BME280;9379;52.134;11.576;2024-02-21T11:39:06;100982.38;;;14.61;74.63
18500;BME280;9379;52.134;11.576;2024-02-21T11:41:35;100974.13;;;14.72;75.19
18500;BME280;9379;52.134;11.576;2024-02-21T11:44:02;100978.84;;;14.78;73.46
18500;BME280;9379;52.134;11.576;2024-02-21T11:46:29;100969.91;;;14.70;72.77
18500;BME280;9379;52.134;11.576;2024-02-21T11:48:56;100968.59;;;15.09;74.90
18500;BME280;9379;52.134;11.576;2024-02-21T11:51:25;100971.28;;;14.56;74.12
18500;BME280;9379;52.134;11.576;2024-02-21T11:53:53;100959.81;;;14.81;73.72
18500;BME280;9379;52.134;11.576;2024-02-21T11:56:21;100961.06;;;14.87;71.82
18500;BME280;9379;52.134;11.576;2024-02-21T11:58:49;100957.78;;;15.19;70.63
18500;BME280;9379;52.134;11.576;2024-02-21T12:01:16;100944.41;;;15.19;70.86
18500;BME280;9379;52.134;11.576;2024-02-21T12:03:43;100935.41;;;15.54;69.71
18500;BME280;9379;52.134;11.576;2024-02-21T12:06:16;100946.28;;;15.27;71.43
18500;BME280;9379;52.134;11.576;2024-02-21T12:08:46;100932.44;;;15.05;72.49
18500;BME280;9379;52.134;11.576;2024-02-21T12:11:18;100928.34;;;15.19;70.96
18500;BME280;9379;52.134;11.576;2024-02-21T12:13:46;100917.56;;;14.85;71.20
18500;BME280;9379;52.134;11.576;2024-02-21T12:16:15;100915.78;;;14.94;72.04
18500;BME280;9379;52.134;11.576;2024-02-21T12:18:43;100909.31;;;14.61;74.31
18500;BME280;9379;52.134;11.576;2024-02-21T12:21:10;100908.91;;;14.38;74.24
18500;BME280;9379;52.134;11.576;2024-02-21T12:23:38;100907.97;;;14.29;74.53
18500;BME280;9379;52.134;11.576;2024-02-21T12:26:04;100904.38;;;14.20;74.95
18500;BME280;9379;52.134;11.576;2024-02-21T12:28:32;100892.19;;;14.53;74.06
18500;BME280;9379;52.134;11.576;2024-02-21T12:31:00;100888.28;;;14.66;74.14
18500;BME280;9379;52.134;11.576;2024-02-21T12:33:30;100877.19;;;14.43;75.10
18500;BME280;9379;52.134;11.576;2024-02-21T12:35:57;100872.78;;;14.51;74.56
18500;BME280;9379;52.134;11.576;2024-02-21T12:38:24;100873.91;;;14.67;72.49
18500;BME280;9379;52.134;11.576;2024-02-21T12:40:52;100863.19;;;14.84;74.17
18500;BME280;9379;52.134;11.576;2024-02-21T12:43:19;100852.50;;;14.67;72.39
18500;BME280;9379;52.134;11.576;2024-02-21T12:45:48;100840.13;;;14.66;74.12
18500;BME280;9379;52.134;11.576;2024-02-21T12:48:16;100847.56;;;14.54;74.43
18500;BME280;9379;52.134;11.576;2024-02-21T12:50:48;100837.13;;;14.69;71.75
18500;BME280;9379;52.134;11.576;2024-02-21T12:53:15;100832.75;;;14.85;71.68
18500;BME280;9379;52.134;11.576;2024-02-21T12:55:44;100846.41;;;14.21;74.74